ADDS METAR Data INFO
IDs: Format: Raw Decoded Include TAF

Data at: 0932 UTC 11 Dec 2017

KWJF 110856Z AUTO 29006KT 10SM CLR 02/M18 A3033 RMK AO2 SLP275 T00171183 58001 $
KWJF 110756Z AUTO 23004KT 10SM CLR 03/M18 A3033 RMK AO2 SLP278 T00281183 401831061 $
KWJF 110656Z AUTO 27007KT 10SM CLR 02/M18 A3033 RMK AO2 SLP283 T00171183 $
KWJF 110556Z AUTO 28008KT CLR 02/M19 A3033 RMK AO2 SLP285 T00221189 10172 20022 52010 $
KWJF 110456Z 29004KT 10SM CLR 04/M18 A3032 RMK AO2 SLP284 T00441183 $
KWJF 110356Z 32007KT 10SM CLR 06/M18 A3031 RMK AO2 SLP282 T00611183 $
KWJF 110256Z 29006KT 10SM CLR 06/M18 A3030 RMK AO2 SLP281 T00611183 53009 $
KWJF 110156Z 33003KT 10SM CLR 09/M17 A3029 RMK AO2 SLP272 T00891172 $
KWJF 110056Z 07005KT 10SM CLR 13/M17 A3028 RMK AO2 SLP265 T01331172 $
KWJF 102356Z 07007KT 10SM CLR 17/M17 A3027 RMK AO2 SLP259 T01721172 10183 20067 56012 $
KWJF 102256Z 05005KT 10SM CLR 18/M17 A3028 RMK AO2 SLP258 T01831167 $
KWJF 102156Z 05007KT 10SM CLR 18/M17 A3029 RMK AO2 SLP263 T01781167 $
KWJF 102056Z 10003KT 10SM CLR 17/M16 A3031 RMK AO2 SLP271 T01721161 58029 $
KWJF 101956Z 04004KT 10SM CLR 15/M16 A3034 RMK AO2 SLP282 T01501161 $
KWJF 101856Z 00000KT 10SM CLR 11/M15 A3038 RMK AO2 SLP300 T01061150 $
KWJF 101756Z 00000KT 10SM CLR 07/M15 A3040 RMK AO2 SLP310 T00671150 10067 21061 50006 $
KWJF 101656Z 00000KT 10SM CLR 02/M15 A3041 RMK AO2 SLP314 T00221150 $
KWJF 101556Z 00000KT 10SM CLR M03/M18 A3039 RMK AO2 SLP313 T10331178 $
KWJF 101456Z 00000KT 10SM CLR M06/M19 A3038 RMK AO2 SLP309 T10611189 53006 $
KWJF 101356Z AUTO 00000KT 10SM CLR M03/M17 A3038 RMK AO2 SLP302 T10281172 $
KWJF 101256Z AUTO 30004KT 10SM CLR M04/M18 A3036 RMK AO2 SLP296 T10391183 $
KWJF 101156Z AUTO 26004KT 10SM CLR M03/M17 A3037 RMK AO2 SLP291 T10281172 10033 21033 58001 $
KWJF 101056Z AUTO VRB03KT 10SM CLR M01/M17 A3037 RMK AO2 SLP289 T10111167 $
KWJF 100956Z AUTO 00000KT 10SM CLR M02/M18 A3037 RMK AO2 SLP290 T10171183 $
KWJF 100856Z AUTO 00000KT 10SM CLR M01/M18 A3037 RMK AO2 SLP290 T10061178 58005 $
KWJF 100756Z AUTO 00000KT 10SM CLR 01/M17 A3038 RMK AO2 SLP294 T00111172 402001044 $
KWJF 100656Z AUTO 00000KT 10SM CLR M01/M18 A3038 RMK AO2 SLP301 T10061178 $
KWJF 100556Z AUTO 29006KT 10SM CLR 02/M17 A3038 RMK AO2 SLP302 T00171167 10183 20011 51010 $
KWJF 100456Z 27006KT 10SM CLR 03/M17 A3038 RMK AO2 SLP301 T00331167 $
KWJF 100356Z 28004KT 10SM CLR 04/M17 A3036 RMK AO2 SLP301 T00391167
KWJF 100256Z 00000KT 10SM CLR 08/M16 A3035 RMK AO2 SLP295 T00781161 53014
KWJF 100156Z 03005KT 10SM CLR 10/M15 A3034 RMK AO2 SLP288 T01001150
KWJF 100056Z 05007KT 10SM CLR 13/M14 A3031 RMK AO2 SLP278 T01281139
KWJF 092356Z 05009KT 10SM CLR 18/M14 A3031 RMK AO2 SLP271 T01831144 10200 20083 55012
KWJF 092256Z 07011KT 10SM CLR 19/M15 A3031 RMK AO2 SLP267 T01941150
KWJF 092156Z 07008KT 10SM CLR 19/M14 A3032 RMK AO2 SLP270 T01891139